Time;durP1;ratioP1;P1;durP2;ratioP2;P2;SDS_P1;SDS_P2;PMS_P1;PMS_P2;Temp;Humidity;BMP_temperature;BMP_pressure;BME280_temperature;BME280_humidity;BME280_pressure;Samples;Min_cycle;Max_cycle;Signal;HPM_P1;HPM_P2
2024/01/14 00:19:23;;;;;;;18.65;12.25;;;;;;;20.05;47.62;99991.41;41233893;28;20050;-72
2024/01/14 00:39:25;;;;;;;15.90;10.43;;;;;;;20.07;47.71;99967.66;41368336;28;20037;-72
2024/01/14 00:59:25;;;;;;;14.98;10.27;;;;;;;20.02;47.64;99943.50;41280391;28;20038;-72
2024/01/14 01:19:25;;;;;;;14.00;9.52;;;;;;;20.01;47.07;99926.91;41212175;28;20069;-72
2024/01/14 01:39:26;;;;;;;14.00;8.80;;;;;;;20.02;47.16;99902.31;41288213;28;20498;-72
2024/01/14 01:59:26;;;;;;;11.90;8.00;;;;;;;20.06;46.78;99887.13;41351340;28;20042;-73
2024/01/14 02:19:27;;;;;;;11.20;7.30;;;;;;;20.13;46.52;99862.84;41280311;28;20443;-73
2024/01/14 02:39:27;;;;;;;10.50;7.05;;;;;;;20.12;46.56;99860.34;41264018;28;20095;-73
2024/01/14 02:59:28;;;;;;;10.95;6.97;;;;;;;20.11;46.25;99853.41;41215047;28;20034;-73
2024/01/14 03:19:28;;;;;;;8.57;6.50;;;;;;;20.19;46.42;99831.75;41291996;28;20053;-72
2024/01/14 03:39:29;;;;;;;8.43;5.95;;;;;;;20.08;46.38;99816.84;41347814;28;20517;-72
2024/01/14 03:59:29;;;;;;;8.20;6.22;;;;;;;20.11;46.26;99804.31;41344322;28;20132;-73
2024/01/14 04:19:29;;;;;;;6.60;5.40;;;;;;;20.13;46.34;99789.25;41322147;28;20368;-72
2024/01/14 04:39:31;;;;;;;6.47;5.00;;;;;;;20.15;46.14;99781.22;41380254;28;20047;-71
2024/01/14 04:59:31;;;;;;;7.15;5.03;;;;;;;20.12;45.98;99774.44;41374421;28;20509;-72
2024/01/14 05:19:32;;;;;;;6.97;5.00;;;;;;;20.43;45.05;99765.78;41373156;28;20048;-73
2024/01/14 05:39:35;;;;;;;6.07;4.45;;;;;;;20.71;44.51;99761.63;41372661;28;20060;-72
2024/01/14 05:59:37;;;;;;;13.68;5.10;;;;;;;20.82;44.59;99754.69;41327953;28;20116;-79
2024/01/14 06:19:40;;;;;;;8.07;4.88;;;;;;;20.74;44.84;99729.03;41386608;28;20164;-77
2024/01/14 06:39:40;;;;;;;7.25;4.55;;;;;;;21.10;44.72;99745.22;41394697;28;20045;-77
2024/01/14 06:59:42;;;;;;;8.85;5.55;;;;;;;21.22;44.51;99746.78;41433269;28;20038;-77
2024/01/14 07:19:42;;;;;;;7.68;5.22;;;;;;;21.34;44.22;99742.22;41424164;28;20046;-74
2024/01/14 07:39:43;;;;;;;12.18;4.75;;;;;;;21.35;43.62;99753.59;41387001;28;20200;-72
2024/01/14 07:59:43;;;;;;;11.32;6.60;;;;;;;21.62;44.82;99766.16;41419728;28;20472;-75
2024/01/14 08:19:44;;;;;;;11.52;7.65;;;;;;;21.59;45.19;99767.25;41419608;28;20034;-70
2024/01/14 08:39:45;;;;;;;13.73;8.63;;;;;;;21.53;44.57;99770.41;41408344;28;20111;-78
2024/01/14 08:59:46;;;;;;;14.73;8.60;;;;;;;21.51;43.70;99782.06;41404774;28;20104;-76
2024/01/14 09:19:48;;;;;;;19.77;10.10;;;;;;;19.07;31.97;99789.84;41425259;28;20042;-85
2024/01/14 09:39:48;;;;;;;21.92;7.78;;;;;;;20.69;35.47;99776.75;41388724;28;20049;-75
2024/01/14 09:59:50;;;;;;;28.65;8.68;;;;;;;21.04;36.76;99738.69;41402122;28;20061;-69
2024/01/14 10:19:54;;;;;;;12.95;8.25;;;;;;;17.15;29.32;99747.06;41391648;28;20488;-76
2024/01/14 10:39:55;;;;;;;48.95;11.68;;;;;;;21.20;35.72;99713.66;41373488;28;20141;-77
2024/01/14 11:00:00;;;;;;;28.92;7.32;;;;;;;19.12;30.20;99695.81;41376392;28;20054;-78
2024/01/14 11:20:02;;;;;;;15.48;5.32;;;;;;;20.67;35.70;99686.59;41489619;28;20045;-81
2024/01/14 11:40:11;;;;;;;14.35;6.60;;;;;;;19.74;37.15;99662.78;41344356;28;20038;-73
2024/01/14 12:00:16;;;;;;;11.02;5.03;;;;;;;21.63;39.79;99622.91;41248838;28;20118;-75
2024/01/14 12:20:21;;;;;;;9.30;4.78;;;;;;;22.37;38.92;99602.03;41383981;28;20048;-75
2024/01/14 12:40:22;;;;;;;7.38;3.80;;;;;;;22.49;38.82;99600.06;41358696;28;20561;-76
2024/01/14 13:00:22;;;;;;;6.40;3.65;;;;;;;22.34;40.97;99550.41;41449002;28;20173;-78
2024/01/14 13:20:23;;;;;;;7.55;3.50;;;;;;;22.15;41.22;99563.69;41413602;28;20047;-75
2024/01/14 13:40:24;;;;;;;6.47;3.25;;;;;;;22.10;41.58;99569.38;41330022;28;20494;-76
2024/01/14 14:00:24;;;;;;;7.22;3.50;;;;;;;21.79;38.41;99576.69;41306306;28;20057;-73
2024/01/14 14:20:24;;;;;;;4.75;3.35;;;;;;;21.75;41.03;99574.38;41379548;28;20108;-72
2024/01/14 14:40:25;;;;;;;3.95;2.95;;;;;;;21.64;42.14;99564.00;41381517;28;20164;-73
2024/01/14 15:00:26;;;;;;;4.95;3.15;;;;;;;21.51;42.54;99560.78;41370359;28;21768;-71
2024/01/14 15:20:26;;;;;;;8.25;4.10;;;;;;;21.38;39.98;99546.09;41363407;28;20043;-68
2024/01/14 15:40:28;;;;;;;6.57;4.55;;;;;;;21.20;38.08;99559.16;41235023;28;20118;-75
2024/01/14 16:00:28;;;;;;;7.97;3.70;;;;;;;21.35;44.40;99533.22;41395652;28;21141;-72
2024/01/14 16:20:30;;;;;;;11.70;5.97;;;;;;;21.77;49.65;99524.16;41400879;28;20042;-75
2024/01/14 16:40:30;;;;;;;26.58;12.60;;;;;;;21.48;51.38;99529.47;41396611;28;20044;-76
2024/01/14 17:00:31;;;;;;;24.88;11.90;;;;;;;21.21;48.42;99531.03;41410483;28;20057;-76
2024/01/14 17:20:32;;;;;;;29.05;12.60;;;;;;;21.23;46.47;99500.13;41441380;28;20038;-77
2024/01/14 17:40:32;;;;;;;26.98;12.20;;;;;;;21.12;47.56;99506.38;41481332;28;20457;-73
2024/01/14 18:00:33;;;;;;;35.60;13.55;;;;;;;21.13;46.98;99483.50;41460294;28;20049;-74
2024/01/14 18:20:34;;;;;;;534.58;220.20;;;;;;;21.02;49.49;99477.44;41397844;28;20038;-74
2024/01/14 18:40:34;;;;;;;457.58;177.10;;;;;;;21.07;48.67;99487.53;41417203;28;20665;-75
2024/01/14 19:00:35;;;;;;;399.55;150.77;;;;;;;20.94;49.45;99472.03;41436137;28;20112;-72
2024/01/14 19:20:36;;;;;;;337.33;130.88;;;;;;;20.93;48.29;99471.19;41285247;28;20093;-72
2024/01/14 19:40:37;;;;;;;291.73;115.05;;;;;;;20.90;48.68;99465.38;41428155;28;20050;-73
2024/01/14 20:00:39;;;;;;;253.98;102.05;;;;;;;20.92;48.75;99445.84;41437793;28;20038;-73
2024/01/14 20:20:40;;;;;;;215.27;87.93;;;;;;;20.68;48.27;99403.31;41416091;28;20505;-73
2024/01/14 20:40:42;;;;;;;150.13;65.15;;;;;;;20.47;45.22;99389.34;41439639;28;20135;-75
2024/01/14 21:00:42;;;;;;;123.13;54.42;;;;;;;20.62;45.16;99367.88;41466229;28;20046;-76
2024/01/14 21:20:44;;;;;;;109.60;50.50;;;;;;;20.54;45.60;99355.41;41424798;28;20042;-75
2024/01/14 21:40:44;;;;;;;97.32;44.33;;;;;;;20.52;45.67;99340.75;41430428;28;20068;-75
2024/01/14 22:00:45;;;;;;;85.25;40.53;;;;;;;20.50;45.14;99325.13;41448606;28;20107;-75
2024/01/14 22:20:45;;;;;;;78.68;35.90;;;;;;;20.42;44.90;99319.72;41441105;28;22371;-75
2024/01/14 22:40:52;;;;;;;67.85;33.15;;;;;;;20.40;44.59;99282.25;41414794;28;20133;-75
2024/01/14 23:00:53;;;;;;;63.58;30.80;;;;;;;20.32;44.25;99264.53;41403994;28;20073;-75
2024/01/14 23:20:55;;;;;;;54.92;27.88;;;;;;;20.23;45.93;99223.34;41399142;28;20045;-72
2024/01/14 23:40:55;;;;;;;46.85;26.02;;;;;;;20.13;46.27;99176.03;41390543;28;20092;-72
